Terminal Aerodrome Forecast
Issued by NWS Charleston, WV

Current Version | Previous Version | Text Only | Print | Product List | Glossary Off
Versions: 1 2 3 4 5 6 7 8 9 10 11 12 13 14 15 16 17 18 19 20 21 22 23 24 25 26 27 28 29 30 31 32 33 34

000
FTUS41 KRLX 180500
TAFEKN
TAF
KEKN 180528Z 1806/1906 24012G20KT P6SM SCT060
     FM180800 29008G18KT P6SM BKN035
     FM181100 30008KT P6SM BKN020
     FM181500 28011G19KT P6SM BKN020
     FM181800 28012G20KT 6SM -RA BR BKN020
     FM190200 30011G19KT 6SM BR OVC012=

USA.gov is the U.S. government's official web portal to all federal, state and local government web resources and services.